sensor_id;sensor_type;location;lat;lon;timestamp;P1;P2;P0
57884;PMS5003;43703;51.060;-0.086;2023-04-15T00:01:20;4;4;
57884;PMS5003;43703;51.060;-0.086;2023-04-15T00:03:45;7;7;
57884;PMS5003;43703;51.060;-0.086;2023-04-15T00:06:10;8;8;
57884;PMS5003;43703;51.060;-0.086;2023-04-15T00:08:35;9;8;
57884;PMS5003;43703;51.060;-0.086;2023-04-15T00:11:00;8;8;
57884;PMS5003;43703;51.060;-0.086;2023-04-15T00:13:25;7;7;
57884;PMS5003;43703;51.060;-0.086;2023-04-15T00:15:50;10;10;
57884;PMS5003;43703;51.060;-0.086;2023-04-15T00:18:16;12;12;
57884;PMS5003;43703;51.060;-0.086;2023-04-15T00:20:41;14;14;
57884;PMS5003;43703;51.060;-0.086;2023-04-15T00:23:07;14;14;
57884;PMS5003;43703;51.060;-0.086;2023-04-15T00:25:32;15;14;
57884;PMS5003;43703;51.060;-0.086;2023-04-15T00:27:57;16;15;
57884;PMS5003;43703;51.060;-0.086;2023-04-15T00:30:22;14;14;
57884;PMS5003;43703;51.060;-0.086;2023-04-15T00:32:47;16;15;
57884;PMS5003;43703;51.060;-0.086;2023-04-15T00:35:12;16;16;
57884;PMS5003;43703;51.060;-0.086;2023-04-15T00:37:38;18;18;
57884;PMS5003;43703;51.060;-0.086;2023-04-15T00:40:03;17;16;
57884;PMS5003;43703;51.060;-0.086;2023-04-15T00:42:28;21;20;
57884;PMS5003;43703;51.060;-0.086;2023-04-15T00:44:53;21;20;
57884;PMS5003;43703;51.060;-0.086;2023-04-15T00:47:19;19;19;
57884;PMS5003;43703;51.060;-0.086;2023-04-15T00:49:45;20;20;
57884;PMS5003;43703;51.060;-0.086;2023-04-15T00:52:11;17;17;
57884;PMS5003;43703;51.060;-0.086;2023-04-15T00:54:36;19;18;
57884;PMS5003;43703;51.060;-0.086;2023-04-15T00:57:03;18;16;
57884;PMS5003;43703;51.060;-0.086;2023-04-15T00:59:27;18;18;
57884;PMS5003;43703;51.060;-0.086;2023-04-15T01:01:52;19;16;
57884;PMS5003;43703;51.060;-0.086;2023-04-15T01:04:18;15;15;
57884;PMS5003;43703;51.060;-0.086;2023-04-15T01:06:43;16;16;
57884;PMS5003;43703;51.060;-0.086;2023-04-15T01:09:09;17;17;
57884;PMS5003;43703;51.060;-0.086;2023-04-15T01:11:34;18;17;
57884;PMS5003;43703;51.060;-0.086;2023-04-15T01:13:59;15;15;
57884;PMS5003;43703;51.060;-0.086;2023-04-15T01:16:24;13;13;
57884;PMS5003;43703;51.060;-0.086;2023-04-15T01:18:49;13;12;
57884;PMS5003;43703;51.060;-0.086;2023-04-15T01:21:14;15;15;
57884;PMS5003;43703;51.060;-0.086;2023-04-15T01:23:39;14;14;
57884;PMS5003;43703;51.060;-0.086;2023-04-15T01:26:05;13;13;
57884;PMS5003;43703;51.060;-0.086;2023-04-15T01:28:30;12;12;
57884;PMS5003;43703;51.060;-0.086;2023-04-15T01:33:20;13;12;
57884;PMS5003;43703;51.060;-0.086;2023-04-15T01:35:45;16;16;
57884;PMS5003;43703;51.060;-0.086;2023-04-15T01:38:10;14;13;
57884;PMS5003;43703;51.060;-0.086;2023-04-15T01:40:35;13;11;
57884;PMS5003;43703;51.060;-0.086;2023-04-15T01:43:01;17;15;
57884;PMS5003;43703;51.060;-0.086;2023-04-15T01:45:26;14;14;
57884;PMS5003;43703;51.060;-0.086;2023-04-15T01:47:51;17;17;
57884;PMS5003;43703;51.060;-0.086;2023-04-15T01:50:16;16;16;
57884;PMS5003;43703;51.060;-0.086;2023-04-15T01:52:42;16;15;
57884;PMS5003;43703;51.060;-0.086;2023-04-15T01:55:08;15;15;
57884;PMS5003;43703;51.060;-0.086;2023-04-15T01:57:32;11;11;
57884;PMS5003;43703;51.060;-0.086;2023-04-15T01:59:57;14;12;
57884;PMS5003;43703;51.060;-0.086;2023-04-15T02:02:23;15;14;
57884;PMS5003;43703;51.060;-0.086;2023-04-15T02:04:49;13;13;
57884;PMS5003;43703;51.060;-0.086;2023-04-15T02:07:14;15;14;
57884;PMS5003;43703;51.060;-0.086;2023-04-15T02:09:39;12;12;
57884;PMS5003;43703;51.060;-0.086;2023-04-15T02:12:04;13;13;
57884;PMS5003;43703;51.060;-0.086;2023-04-15T02:14:29;12;12;
57884;PMS5003;43703;51.060;-0.086;2023-04-15T02:16:54;12;12;
57884;PMS5003;43703;51.060;-0.086;2023-04-15T02:19:20;15;13;
57884;PMS5003;43703;51.060;-0.086;2023-04-15T02:21:45;11;11;
57884;PMS5003;43703;51.060;-0.086;2023-04-15T02:24:10;10;10;
57884;PMS5003;43703;51.060;-0.086;2023-04-15T02:26:35;9;9;
57884;PMS5003;43703;51.060;-0.086;2023-04-15T02:29:00;13;13;
57884;PMS5003;43703;51.060;-0.086;2023-04-15T02:31:25;17;15;
57884;PMS5003;43703;51.060;-0.086;2023-04-15T02:33:50;10;10;
57884;PMS5003;43703;51.060;-0.086;2023-04-15T02:36:15;11;10;
57884;PMS5003;43703;51.060;-0.086;2023-04-15T02:38:40;8;8;
57884;PMS5003;43703;51.060;-0.086;2023-04-15T02:41:05;8;8;
57884;PMS5003;43703;51.060;-0.086;2023-04-15T02:43:30;8;8;
57884;PMS5003;43703;51.060;-0.086;2023-04-15T02:45:55;11;11;
57884;PMS5003;43703;51.060;-0.086;2023-04-15T02:48:20;9;9;
57884;PMS5003;43703;51.060;-0.086;2023-04-15T02:50:46;10;10;
57884;PMS5003;43703;51.060;-0.086;2023-04-15T02:53:11;9;9;
57884;PMS5003;43703;51.060;-0.086;2023-04-15T02:55:36;10;10;
57884;PMS5003;43703;51.060;-0.086;2023-04-15T02:58:01;11;11;
57884;PMS5003;43703;51.060;-0.086;2023-04-15T03:00:27;8;8;
57884;PMS5003;43703;51.060;-0.086;2023-04-15T03:02:56;10;10;
57884;PMS5003;43703;51.060;-0.086;2023-04-15T03:05:17;7;7;
57884;PMS5003;43703;51.060;-0.086;2023-04-15T03:07:42;7;7;
57884;PMS5003;43703;51.060;-0.086;2023-04-15T03:10:08;7;7;
57884;PMS5003;43703;51.060;-0.086;2023-04-15T03:12:32;12;11;
57884;PMS5003;43703;51.060;-0.086;2023-04-15T03:14:57;8;8;
57884;PMS5003;43703;51.060;-0.086;2023-04-15T03:17:22;7;7;
57884;PMS5003;43703;51.060;-0.086;2023-04-15T03:19:47;8;8;
57884;PMS5003;43703;51.060;-0.086;2023-04-15T03:22:13;9;9;
57884;PMS5003;43703;51.060;-0.086;2023-04-15T03:24:38;7;6;
57884;PMS5003;43703;51.060;-0.086;2023-04-15T03:27:03;8;8;
57884;PMS5003;43703;51.060;-0.086;2023-04-15T03:29:29;9;9;
57884;PMS5003;43703;51.060;-0.086;2023-04-15T03:31:54;9;9;
57884;PMS5003;43703;51.060;-0.086;2023-04-15T03:34:19;6;6;
57884;PMS5003;43703;51.060;-0.086;2023-04-15T03:36:44;8;8;
57884;PMS5003;43703;51.060;-0.086;2023-04-15T03:39:09;5;5;
57884;PMS5003;43703;51.060;-0.086;2023-04-15T03:41:34;6;6;
57884;PMS5003;43703;51.060;-0.086;2023-04-15T03:43:59;7;7;
57884;PMS5003;43703;51.060;-0.086;2023-04-15T03:46:24;9;9;
57884;PMS5003;43703;51.060;-0.086;2023-04-15T03:48:49;8;8;
57884;PMS5003;43703;51.060;-0.086;2023-04-15T03:51:15;6;6;
57884;PMS5003;43703;51.060;-0.086;2023-04-15T03:53:40;6;6;
57884;PMS5003;43703;51.060;-0.086;2023-04-15T03:56:05;5;5;
57884;PMS5003;43703;51.060;-0.086;2023-04-15T03:58:30;6;6;
57884;PMS5003;43703;51.060;-0.086;2023-04-15T04:00:55;8;8;
57884;PMS5003;43703;51.060;-0.086;2023-04-15T04:03:20;7;7;
57884;PMS5003;43703;51.060;-0.086;2023-04-15T04:05:45;9;7;
57884;PMS5003;43703;51.060;-0.086;2023-04-15T04:08:10;5;5;
57884;PMS5003;43703;51.060;-0.086;2023-04-15T04:10:35;7;7;
57884;PMS5003;43703;51.060;-0.086;2023-04-15T04:13:00;7;7;
57884;PMS5003;43703;51.060;-0.086;2023-04-15T04:15:25;7;7;
57884;PMS5003;43703;51.060;-0.086;2023-04-15T04:17:50;7;7;
57884;PMS5003;43703;51.060;-0.086;2023-04-15T04:20:16;8;8;
57884;PMS5003;43703;51.060;-0.086;2023-04-15T04:22:41;8;8;
57884;PMS5003;43703;51.060;-0.086;2023-04-15T04:25:06;8;8;
57884;PMS5003;43703;51.060;-0.086;2023-04-15T04:27:31;7;7;
57884;PMS5003;43703;51.060;-0.086;2023-04-15T04:29:56;8;8;
57884;PMS5003;43703;51.060;-0.086;2023-04-15T04:32:21;11;10;
57884;PMS5003;43703;51.060;-0.086;2023-04-15T04:34:46;9;9;
57884;PMS5003;43703;51.060;-0.086;2023-04-15T04:37:11;10;10;
57884;PMS5003;43703;51.060;-0.086;2023-04-15T04:39:36;11;11;
57884;PMS5003;43703;51.060;-0.086;2023-04-15T04:42:01;10;9;
57884;PMS5003;43703;51.060;-0.086;2023-04-15T04:44:26;10;10;
57884;PMS5003;43703;51.060;-0.086;2023-04-15T04:46:51;9;9;
57884;PMS5003;43703;51.060;-0.086;2023-04-15T04:49:16;8;8;
57884;PMS5003;43703;51.060;-0.086;2023-04-15T04:51:42;14;13;
57884;PMS5003;43703;51.060;-0.086;2023-04-15T04:54:07;11;11;
57884;PMS5003;43703;51.060;-0.086;2023-04-15T04:56:33;15;15;
57884;PMS5003;43703;51.060;-0.086;2023-04-15T04:58:58;10;10;
57884;PMS5003;43703;51.060;-0.086;2023-04-15T05:01:23;10;9;
57884;PMS5003;43703;51.060;-0.086;2023-04-15T05:03:48;10;10;
57884;PMS5003;43703;51.060;-0.086;2023-04-15T05:06:13;9;9;
57884;PMS5003;43703;51.060;-0.086;2023-04-15T05:08:38;9;9;
57884;PMS5003;43703;51.060;-0.086;2023-04-15T05:11:03;11;10;
57884;PMS5003;43703;51.060;-0.086;2023-04-15T05:13:28;12;12;
57884;PMS5003;43703;51.060;-0.086;2023-04-15T05:15:53;10;10;
57884;PMS5003;43703;51.060;-0.086;2023-04-15T05:18:19;10;10;
57884;PMS5003;43703;51.060;-0.086;2023-04-15T05:20:44;10;10;
57884;PMS5003;43703;51.060;-0.086;2023-04-15T05:23:09;10;10;
57884;PMS5003;43703;51.060;-0.086;2023-04-15T05:25:34;11;11;
57884;PMS5003;43703;51.060;-0.086;2023-04-15T05:27:59;10;10;
57884;PMS5003;43703;51.060;-0.086;2023-04-15T05:30:24;10;10;
57884;PMS5003;43703;51.060;-0.086;2023-04-15T05:32:49;11;11;
57884;PMS5003;43703;51.060;-0.086;2023-04-15T05:35:15;10;10;
57884;PMS5003;43703;51.060;-0.086;2023-04-15T05:37:40;12;12;
57884;PMS5003;43703;51.060;-0.086;2023-04-15T05:40:05;14;13;
57884;PMS5003;43703;51.060;-0.086;2023-04-15T05:42:30;12;11;
57884;PMS5003;43703;51.060;-0.086;2023-04-15T05:44:55;11;10;
57884;PMS5003;43703;51.060;-0.086;2023-04-15T05:47:20;13;11;
57884;PMS5003;43703;51.060;-0.086;2023-04-15T05:49:45;9;9;
57884;PMS5003;43703;51.060;-0.086;2023-04-15T05:52:10;11;11;
57884;PMS5003;43703;51.060;-0.086;2023-04-15T05:54:35;10;10;
57884;PMS5003;43703;51.060;-0.086;2023-04-15T05:57:00;11;11;
57884;PMS5003;43703;51.060;-0.086;2023-04-15T05:59:25;12;12;
57884;PMS5003;43703;51.060;-0.086;2023-04-15T06:01:50;15;13;
57884;PMS5003;43703;51.060;-0.086;2023-04-15T06:04:15;10;10;
57884;PMS5003;43703;51.060;-0.086;2023-04-15T06:06:41;18;15;
57884;PMS5003;43703;51.060;-0.086;2023-04-15T06:09:06;11;11;
57884;PMS5003;43703;51.060;-0.086;2023-04-15T06:11:31;11;11;
57884;PMS5003;43703;51.060;-0.086;2023-04-15T06:13:56;11;11;
57884;PMS5003;43703;51.060;-0.086;2023-04-15T06:16:21;10;10;
57884;PMS5003;43703;51.060;-0.086;2023-04-15T06:18:46;14;12;
57884;PMS5003;43703;51.060;-0.086;2023-04-15T06:21:11;10;10;
57884;PMS5003;43703;51.060;-0.086;2023-04-15T06:23:36;12;12;
57884;PMS5003;43703;51.060;-0.086;2023-04-15T06:26:02;13;13;
57884;PMS5003;43703;51.060;-0.086;2023-04-15T06:28:27;10;10;
57884;PMS5003;43703;51.060;-0.086;2023-04-15T06:30:52;12;11;
57884;PMS5003;43703;51.060;-0.086;2023-04-15T06:33:17;13;12;
57884;PMS5003;43703;51.060;-0.086;2023-04-15T06:35:42;11;11;
57884;PMS5003;43703;51.060;-0.086;2023-04-15T06:38:08;15;15;
57884;PMS5003;43703;51.060;-0.086;2023-04-15T06:40:33;14;13;
57884;PMS5003;43703;51.060;-0.086;2023-04-15T06:42:58;14;12;
57884;PMS5003;43703;51.060;-0.086;2023-04-15T06:45:23;14;14;
57884;PMS5003;43703;51.060;-0.086;2023-04-15T06:47:48;13;13;
57884;PMS5003;43703;51.060;-0.086;2023-04-15T06:50:13;15;15;
57884;PMS5003;43703;51.060;-0.086;2023-04-15T06:52:40;13;13;
57884;PMS5003;43703;51.060;-0.086;2023-04-15T06:55:04;16;13;
57884;PMS5003;43703;51.060;-0.086;2023-04-15T06:57:29;12;12;
57884;PMS5003;43703;51.060;-0.086;2023-04-15T06:59:54;14;14;
57884;PMS5003;43703;51.060;-0.086;2023-04-15T07:02:19;16;14;
57884;PMS5003;43703;51.060;-0.086;2023-04-15T07:04:44;15;14;
57884;PMS5003;43703;51.060;-0.086;2023-04-15T07:07:09;10;10;
57884;PMS5003;43703;51.060;-0.086;2023-04-15T07:09:34;12;12;
57884;PMS5003;43703;51.060;-0.086;2023-04-15T07:12:00;10;10;
57884;PMS5003;43703;51.060;-0.086;2023-04-15T07:14:25;11;11;
57884;PMS5003;43703;51.060;-0.086;2023-04-15T07:16:50;11;9;
57884;PMS5003;43703;51.060;-0.086;2023-04-15T07:19:15;11;10;
57884;PMS5003;43703;51.060;-0.086;2023-04-15T07:21:40;10;10;
57884;PMS5003;43703;51.060;-0.086;2023-04-15T07:24:05;13;10;
57884;PMS5003;43703;51.060;-0.086;2023-04-15T07:26:30;11;11;
57884;PMS5003;43703;51.060;-0.086;2023-04-15T07:28:56;9;9;
57884;PMS5003;43703;51.060;-0.086;2023-04-15T07:31:21;9;9;
57884;PMS5003;43703;51.060;-0.086;2023-04-15T07:33:46;9;9;
57884;PMS5003;43703;51.060;-0.086;2023-04-15T07:36:11;11;11;
57884;PMS5003;43703;51.060;-0.086;2023-04-15T07:38:36;11;11;
57884;PMS5003;43703;51.060;-0.086;2023-04-15T07:41:01;11;11;
57884;PMS5003;43703;51.060;-0.086;2023-04-15T07:43:26;10;10;
57884;PMS5003;43703;51.060;-0.086;2023-04-15T07:45:51;9;9;
57884;PMS5003;43703;51.060;-0.086;2023-04-15T07:48:16;11;11;
57884;PMS5003;43703;51.060;-0.086;2023-04-15T07:50:41;10;10;
57884;PMS5003;43703;51.060;-0.086;2023-04-15T07:53:06;7;7;
57884;PMS5003;43703;51.060;-0.086;2023-04-15T07:55:31;9;8;
57884;PMS5003;43703;51.060;-0.086;2023-04-15T07:57:56;10;10;
57884;PMS5003;43703;51.060;-0.086;2023-04-15T08:00:21;7;7;
57884;PMS5003;43703;51.060;-0.086;2023-04-15T08:02:46;8;8;
57884;PMS5003;43703;51.060;-0.086;2023-04-15T08:05:12;11;10;
57884;PMS5003;43703;51.060;-0.086;2023-04-15T08:07:36;8;7;
57884;PMS5003;43703;51.060;-0.086;2023-04-15T08:10:01;8;8;
57884;PMS5003;43703;51.060;-0.086;2023-04-15T08:12:26;7;7;
57884;PMS5003;43703;51.060;-0.086;2023-04-15T08:14:52;7;7;
57884;PMS5003;43703;51.060;-0.086;2023-04-15T08:17:17;10;10;
57884;PMS5003;43703;51.060;-0.086;2023-04-15T08:19:42;12;12;
57884;PMS5003;43703;51.060;-0.086;2023-04-15T08:22:07;10;10;
57884;PMS5003;43703;51.060;-0.086;2023-04-15T08:24:32;11;11;
57884;PMS5003;43703;51.060;-0.086;2023-04-15T08:26:57;11;11;
57884;PMS5003;43703;51.060;-0.086;2023-04-15T08:29:22;11;11;
57884;PMS5003;43703;51.060;-0.086;2023-04-15T08:31:47;11;11;
57884;PMS5003;43703;51.060;-0.086;2023-04-15T08:34:12;9;9;
57884;PMS5003;43703;51.060;-0.086;2023-04-15T08:36:37;12;12;
57884;PMS5003;43703;51.060;-0.086;2023-04-15T08:39:02;13;13;
57884;PMS5003;43703;51.060;-0.086;2023-04-15T08:41:27;10;10;
57884;PMS5003;43703;51.060;-0.086;2023-04-15T08:43:53;15;13;
57884;PMS5003;43703;51.060;-0.086;2023-04-15T08:46:17;11;11;
57884;PMS5003;43703;51.060;-0.086;2023-04-15T08:48:42;11;11;
57884;PMS5003;43703;51.060;-0.086;2023-04-15T08:51:07;10;10;
57884;PMS5003;43703;51.060;-0.086;2023-04-15T08:53:32;12;12;
57884;PMS5003;43703;51.060;-0.086;2023-04-15T08:55:58;11;10;
57884;PMS5003;43703;51.060;-0.086;2023-04-15T08:58:22;10;10;
57884;PMS5003;43703;51.060;-0.086;2023-04-15T09:00:47;13;12;
57884;PMS5003;43703;51.060;-0.086;2023-04-15T09:03:12;15;15;
57884;PMS5003;43703;51.060;-0.086;2023-04-15T09:05:38;16;15;
57884;PMS5003;43703;51.060;-0.086;2023-04-15T09:08:03;11;11;
57884;PMS5003;43703;51.060;-0.086;2023-04-15T09:10:28;13;13;
57884;PMS5003;43703;51.060;-0.086;2023-04-15T09:12:53;11;11;
57884;PMS5003;43703;51.060;-0.086;2023-04-15T09:15:18;14;14;
57884;PMS5003;43703;51.060;-0.086;2023-04-15T09:17:44;9;9;
57884;PMS5003;43703;51.060;-0.086;2023-04-15T09:20:09;12;11;
57884;PMS5003;43703;51.060;-0.086;2023-04-15T09:22:34;10;10;
57884;PMS5003;43703;51.060;-0.086;2023-04-15T09:24:59;13;13;
57884;PMS5003;43703;51.060;-0.086;2023-04-15T09:27:24;10;10;
57884;PMS5003;43703;51.060;-0.086;2023-04-15T09:29:49;13;13;
57884;PMS5003;43703;51.060;-0.086;2023-04-15T09:32:15;12;12;
57884;PMS5003;43703;51.060;-0.086;2023-04-15T09:34:39;9;9;
57884;PMS5003;43703;51.060;-0.086;2023-04-15T09:37:04;10;10;
57884;PMS5003;43703;51.060;-0.086;2023-04-15T09:44:21;11;11;
57884;PMS5003;43703;51.060;-0.086;2023-04-15T09:46:45;14;13;
57884;PMS5003;43703;51.060;-0.086;2023-04-15T09:49:10;14;14;
57884;PMS5003;43703;51.060;-0.086;2023-04-15T09:51:35;13;10;
57884;PMS5003;43703;51.060;-0.086;2023-04-15T09:54:00;17;16;
57884;PMS5003;43703;51.060;-0.086;2023-04-15T09:56:26;11;11;
57884;PMS5003;43703;51.060;-0.086;2023-04-15T09:58:55;10;10;
57884;PMS5003;43703;51.060;-0.086;2023-04-15T10:01:15;13;13;
57884;PMS5003;43703;51.060;-0.086;2023-04-15T10:03:40;13;13;
57884;PMS5003;43703;51.060;-0.086;2023-04-15T10:06:06;13;13;
57884;PMS5003;43703;51.060;-0.086;2023-04-15T10:08:32;12;12;
57884;PMS5003;43703;51.060;-0.086;2023-04-15T10:10:57;13;12;
57884;PMS5003;43703;51.060;-0.086;2023-04-15T10:13:22;13;13;
57884;PMS5003;43703;51.060;-0.086;2023-04-15T10:15:49;14;14;
57884;PMS5003;43703;51.060;-0.086;2023-04-15T10:18:12;12;12;
57884;PMS5003;43703;51.060;-0.086;2023-04-15T10:20:37;11;10;
57884;PMS5003;43703;51.060;-0.086;2023-04-15T10:23:03;13;13;
57884;PMS5003;43703;51.060;-0.086;2023-04-15T10:25:28;12;12;
57884;PMS5003;43703;51.060;-0.086;2023-04-15T10:27:53;12;12;
57884;PMS5003;43703;51.060;-0.086;2023-04-15T10:30:19;14;14;
57884;PMS5003;43703;51.060;-0.086;2023-04-15T10:32:45;15;13;
57884;PMS5003;43703;51.060;-0.086;2023-04-15T10:35:11;11;11;
57884;PMS5003;43703;51.060;-0.086;2023-04-15T10:37:37;14;14;
57884;PMS5003;43703;51.060;-0.086;2023-04-15T10:40:03;12;12;
57884;PMS5003;43703;51.060;-0.086;2023-04-15T10:42:32;12;12;
57884;PMS5003;43703;51.060;-0.086;2023-04-15T10:44:51;15;15;
57884;PMS5003;43703;51.060;-0.086;2023-04-15T10:47:18;15;14;
57884;PMS5003;43703;51.060;-0.086;2023-04-15T10:49:44;20;19;
57884;PMS5003;43703;51.060;-0.086;2023-04-15T10:52:09;17;16;
57884;PMS5003;43703;51.060;-0.086;2023-04-15T10:54:35;13;13;
57884;PMS5003;43703;51.060;-0.086;2023-04-15T10:59:27;15;15;
57884;PMS5003;43703;51.060;-0.086;2023-04-15T11:01:53;13;13;
57884;PMS5003;43703;51.060;-0.086;2023-04-15T11:06:43;13;13;
57884;PMS5003;43703;51.060;-0.086;2023-04-15T11:09:14;15;15;
57884;PMS5003;43703;51.060;-0.086;2023-04-15T11:14:01;15;15;
57884;PMS5003;43703;51.060;-0.086;2023-04-15T11:16:26;14;14;
57884;PMS5003;43703;51.060;-0.086;2023-04-15T11:18:52;17;15;
57884;PMS5003;43703;51.060;-0.086;2023-04-15T11:21:18;15;15;
57884;PMS5003;43703;51.060;-0.086;2023-04-15T11:23:43;14;14;
57884;PMS5003;43703;51.060;-0.086;2023-04-15T11:26:09;18;16;
57884;PMS5003;43703;51.060;-0.086;2023-04-15T11:28:35;19;17;
57884;PMS5003;43703;51.060;-0.086;2023-04-15T11:31:04;13;13;
57884;PMS5003;43703;51.060;-0.086;2023-04-15T11:33:25;16;16;
57884;PMS5003;43703;51.060;-0.086;2023-04-15T11:35:51;17;15;
57884;PMS5003;43703;51.060;-0.086;2023-04-15T11:38:17;18;18;
57884;PMS5003;43703;51.060;-0.086;2023-04-15T11:40:43;15;13;
57884;PMS5003;43703;51.060;-0.086;2023-04-15T11:43:09;16;16;
57884;PMS5003;43703;51.060;-0.086;2023-04-15T11:45:35;13;13;
57884;PMS5003;43703;51.060;-0.086;2023-04-15T11:48:05;19;18;
57884;PMS5003;43703;51.060;-0.086;2023-04-15T11:50:25;20;18;
57884;PMS5003;43703;51.060;-0.086;2023-04-15T11:52:52;20;18;
57884;PMS5003;43703;51.060;-0.086;2023-04-15T11:55:17;14;14;
57884;PMS5003;43703;51.060;-0.086;2023-04-15T11:57:43;14;14;
57884;PMS5003;43703;51.060;-0.086;2023-04-15T12:00:09;14;14;
57884;PMS5003;43703;51.060;-0.086;2023-04-15T12:02:35;16;14;
57884;PMS5003;43703;51.060;-0.086;2023-04-15T12:05:03;18;18;
57884;PMS5003;43703;51.060;-0.086;2023-04-15T12:07:26;19;19;
57884;PMS5003;43703;51.060;-0.086;2023-04-15T12:09:53;18;18;
57884;PMS5003;43703;51.060;-0.086;2023-04-15T12:12:16;15;15;
57884;PMS5003;43703;51.060;-0.086;2023-04-15T12:14:42;16;15;
57884;PMS5003;43703;51.060;-0.086;2023-04-15T12:17:09;17;16;
57884;PMS5003;43703;51.060;-0.086;2023-04-15T12:19:34;20;19;
57884;PMS5003;43703;51.060;-0.086;2023-04-15T12:22:00;17;16;
57884;PMS5003;43703;51.060;-0.086;2023-04-15T12:24:25;17;17;
57884;PMS5003;43703;51.060;-0.086;2023-04-15T12:26:51;19;16;
57884;PMS5003;43703;51.060;-0.086;2023-04-15T12:29:16;17;16;
57884;PMS5003;43703;51.060;-0.086;2023-04-15T12:34:07;15;15;
57884;PMS5003;43703;51.060;-0.086;2023-04-15T12:36:33;16;16;
57884;PMS5003;43703;51.060;-0.086;2023-04-15T12:39:01;18;17;
57884;PMS5003;43703;51.060;-0.086;2023-04-15T12:41:25;19;18;
57884;PMS5003;43703;51.060;-0.086;2023-04-15T12:43:50;17;17;
57884;PMS5003;43703;51.060;-0.086;2023-04-15T12:46:15;18;16;
57884;PMS5003;43703;51.060;-0.086;2023-04-15T12:48:41;17;17;
57884;PMS5003;43703;51.060;-0.086;2023-04-15T12:51:06;17;17;
57884;PMS5003;43703;51.060;-0.086;2023-04-15T12:53:32;16;16;
57884;PMS5003;43703;51.060;-0.086;2023-04-15T12:55:58;16;16;
57884;PMS5003;43703;51.060;-0.086;2023-04-15T12:58:24;18;17;
57884;PMS5003;43703;51.060;-0.086;2023-04-15T13:00:50;16;16;
57884;PMS5003;43703;51.060;-0.086;2023-04-15T13:03:16;17;17;
57884;PMS5003;43703;51.060;-0.086;2023-04-15T13:05:42;19;19;
57884;PMS5003;43703;51.060;-0.086;2023-04-15T13:08:07;18;17;
57884;PMS5003;43703;51.060;-0.086;2023-04-15T13:10:34;20;17;
57884;PMS5003;43703;51.060;-0.086;2023-04-15T13:12:58;20;18;
57884;PMS5003;43703;51.060;-0.086;2023-04-15T13:15:23;18;18;
57884;PMS5003;43703;51.060;-0.086;2023-04-15T13:17:48;21;19;
57884;PMS5003;43703;51.060;-0.086;2023-04-15T13:20:14;17;14;
57884;PMS5003;43703;51.060;-0.086;2023-04-15T13:22:40;17;17;
57884;PMS5003;43703;51.060;-0.086;2023-04-15T13:25:06;17;16;
57884;PMS5003;43703;51.060;-0.086;2023-04-15T13:27:31;16;16;
57884;PMS5003;43703;51.060;-0.086;2023-04-15T13:29:56;19;18;
57884;PMS5003;43703;51.060;-0.086;2023-04-15T13:32:21;17;15;
57884;PMS5003;43703;51.060;-0.086;2023-04-15T13:34:46;17;17;
57884;PMS5003;43703;51.060;-0.086;2023-04-15T13:37:11;17;17;
57884;PMS5003;43703;51.060;-0.086;2023-04-15T13:39:36;18;18;
57884;PMS5003;43703;51.060;-0.086;2023-04-15T13:42:01;19;18;
57884;PMS5003;43703;51.060;-0.086;2023-04-15T13:44:26;14;14;
57884;PMS5003;43703;51.060;-0.086;2023-04-15T13:46:52;18;17;
57884;PMS5003;43703;51.060;-0.086;2023-04-15T13:49:17;15;15;
57884;PMS5003;43703;51.060;-0.086;2023-04-15T13:51:42;18;16;
57884;PMS5003;43703;51.060;-0.086;2023-04-15T13:54:07;16;16;
57884;PMS5003;43703;51.060;-0.086;2023-04-15T13:56:32;16;16;
57884;PMS5003;43703;51.060;-0.086;2023-04-15T13:58:57;16;16;
57884;PMS5003;43703;51.060;-0.086;2023-04-15T14:01:23;17;15;
57884;PMS5003;43703;51.060;-0.086;2023-04-15T14:03:48;19;19;
57884;PMS5003;43703;51.060;-0.086;2023-04-15T14:06:13;17;17;
57884;PMS5003;43703;51.060;-0.086;2023-04-15T14:08:38;18;16;
57884;PMS5003;43703;51.060;-0.086;2023-04-15T14:11:05;21;18;
57884;PMS5003;43703;51.060;-0.086;2023-04-15T14:13:29;15;14;
57884;PMS5003;43703;51.060;-0.086;2023-04-15T14:15:55;21;21;
57884;PMS5003;43703;51.060;-0.086;2023-04-15T14:18:19;13;13;
57884;PMS5003;43703;51.060;-0.086;2023-04-15T14:20:45;16;16;
57884;PMS5003;43703;51.060;-0.086;2023-04-15T14:23:10;21;19;
57884;PMS5003;43703;51.060;-0.086;2023-04-15T14:25:35;20;19;
57884;PMS5003;43703;51.060;-0.086;2023-04-15T14:28:00;18;18;
57884;PMS5003;43703;51.060;-0.086;2023-04-15T14:30:25;18;17;
57884;PMS5003;43703;51.060;-0.086;2023-04-15T14:32:50;18;16;
57884;PMS5003;43703;51.060;-0.086;2023-04-15T14:35:15;18;17;
57884;PMS5003;43703;51.060;-0.086;2023-04-15T14:37:41;18;18;
57884;PMS5003;43703;51.060;-0.086;2023-04-15T14:40:07;18;18;
57884;PMS5003;43703;51.060;-0.086;2023-04-15T14:42:32;17;16;
57884;PMS5003;43703;51.060;-0.086;2023-04-15T14:44:57;16;16;
57884;PMS5003;43703;51.060;-0.086;2023-04-15T14:47:24;15;15;
57884;PMS5003;43703;51.060;-0.086;2023-04-15T14:49:48;16;16;
57884;PMS5003;43703;51.060;-0.086;2023-04-15T14:52:13;18;17;
57884;PMS5003;43703;51.060;-0.086;2023-04-15T14:54:38;16;16;
57884;PMS5003;43703;51.060;-0.086;2023-04-15T14:57:03;19;19;
57884;PMS5003;43703;51.060;-0.086;2023-04-15T14:59:28;17;17;
57884;PMS5003;43703;51.060;-0.086;2023-04-15T15:01:53;19;17;
57884;PMS5003;43703;51.060;-0.086;2023-04-15T15:04:18;17;17;
57884;PMS5003;43703;51.060;-0.086;2023-04-15T15:06:43;21;20;
57884;PMS5003;43703;51.060;-0.086;2023-04-15T15:09:09;23;23;
57884;PMS5003;43703;51.060;-0.086;2023-04-15T15:11:34;18;17;
57884;PMS5003;43703;51.060;-0.086;2023-04-15T15:13:59;23;23;
57884;PMS5003;43703;51.060;-0.086;2023-04-15T15:16:24;18;18;
57884;PMS5003;43703;51.060;-0.086;2023-04-15T15:18:49;22;20;
57884;PMS5003;43703;51.060;-0.086;2023-04-15T15:21:14;19;17;
57884;PMS5003;43703;51.060;-0.086;2023-04-15T15:23:39;19;18;
57884;PMS5003;43703;51.060;-0.086;2023-04-15T15:26:04;20;20;
57884;PMS5003;43703;51.060;-0.086;2023-04-15T15:28:30;19;19;
57884;PMS5003;43703;51.060;-0.086;2023-04-15T15:30:55;19;19;
57884;PMS5003;43703;51.060;-0.086;2023-04-15T15:33:20;17;17;
57884;PMS5003;43703;51.060;-0.086;2023-04-15T15:35:45;18;18;
57884;PMS5003;43703;51.060;-0.086;2023-04-15T15:38:11;16;16;
57884;PMS5003;43703;51.060;-0.086;2023-04-15T15:40:35;20;18;
57884;PMS5003;43703;51.060;-0.086;2023-04-15T15:43:00;16;16;
57884;PMS5003;43703;51.060;-0.086;2023-04-15T15:45:26;21;18;
57884;PMS5003;43703;51.060;-0.086;2023-04-15T15:47:51;21;21;
57884;PMS5003;43703;51.060;-0.086;2023-04-15T15:50:17;15;15;
57884;PMS5003;43703;51.060;-0.086;2023-04-15T15:52:42;16;16;
57884;PMS5003;43703;51.060;-0.086;2023-04-15T15:55:07;17;17;
57884;PMS5003;43703;51.060;-0.086;2023-04-15T15:57:32;18;18;
57884;PMS5003;43703;51.060;-0.086;2023-04-15T15:59:58;19;18;
57884;PMS5003;43703;51.060;-0.086;2023-04-15T16:02:23;21;19;
57884;PMS5003;43703;51.060;-0.086;2023-04-15T16:04:48;18;16;
57884;PMS5003;43703;51.060;-0.086;2023-04-15T16:07:14;21;19;
57884;PMS5003;43703;51.060;-0.086;2023-04-15T16:09:39;19;19;